sensor_id;sensor_type;location;lat;lon;timestamp;temperature;humidity
37658;DHT22;23500;53.268;8.308;2022-10-31T00:02:08;18.20;82.30
37658;DHT22;23500;53.268;8.308;2022-10-31T00:04:33;18.20;82.50
37658;DHT22;23500;53.268;8.308;2022-10-31T00:06:59;18.20;82.40
37658;DHT22;23500;53.268;8.308;2022-10-31T00:09:25;18.20;82.30
37658;DHT22;23500;53.268;8.308;2022-10-31T00:11:50;18.20;82.30
37658;DHT22;23500;53.268;8.308;2022-10-31T00:14:16;18.20;82.50
37658;DHT22;23500;53.268;8.308;2022-10-31T00:16:41;18.20;82.40
37658;DHT22;23500;53.268;8.308;2022-10-31T00:19:07;18.20;82.40
37658;DHT22;23500;53.268;8.308;2022-10-31T00:21:34;18.20;82.50
37658;DHT22;23500;53.268;8.308;2022-10-31T00:24:00;18.20;83.10
37658;DHT22;23500;53.268;8.308;2022-10-31T00:26:28;18.10;82.30
37658;DHT22;23500;53.268;8.308;2022-10-31T00:28:53;18.10;82.30
37658;DHT22;23500;53.268;8.308;2022-10-31T00:31:19;18.10;82.20
37658;DHT22;23500;53.268;8.308;2022-10-31T00:33:45;18.10;82.10
37658;DHT22;23500;53.268;8.308;2022-10-31T00:36:14;18.10;82.20
37658;DHT22;23500;53.268;8.308;2022-10-31T00:38:41;18.10;82.30
37658;DHT22;23500;53.268;8.308;2022-10-31T00:41:07;18.20;82.40
37658;DHT22;23500;53.268;8.308;2022-10-31T00:43:33;18.10;82.40
37658;DHT22;23500;53.268;8.308;2022-10-31T00:45:58;18.10;82.20
37658;DHT22;23500;53.268;8.308;2022-10-31T00:48:24;18.10;82.20
37658;DHT22;23500;53.268;8.308;2022-10-31T00:50:50;18.10;82.30
37658;DHT22;23500;53.268;8.308;2022-10-31T00:53:15;18.10;82.30
37658;DHT22;23500;53.268;8.308;2022-10-31T00:55:41;18.10;82.30
37658;DHT22;23500;53.268;8.308;2022-10-31T00:58:07;18.10;82.40
37658;DHT22;23500;53.268;8.308;2022-10-31T01:00:32;18.10;82.30
37658;DHT22;23500;53.268;8.308;2022-10-31T01:02:58;18.10;82.20
37658;DHT22;23500;53.268;8.308;2022-10-31T01:05:24;18.10;82.20
37658;DHT22;23500;53.268;8.308;2022-10-31T01:07:49;18.10;82.10
37658;DHT22;23500;53.268;8.308;2022-10-31T01:10:15;18.10;82.30
37658;DHT22;23500;53.268;8.308;2022-10-31T01:12:44;18.10;82.10
37658;DHT22;23500;53.268;8.308;2022-10-31T01:15:12;18.10;82.20
37658;DHT22;23500;53.268;8.308;2022-10-31T01:17:38;18.10;82.10
37658;DHT22;23500;53.268;8.308;2022-10-31T01:20:06;18.10;82.10
37658;DHT22;23500;53.268;8.308;2022-10-31T01:22:32;18.10;82.40
37658;DHT22;23500;53.268;8.308;2022-10-31T01:24:58;18.10;82.40
37658;DHT22;23500;53.268;8.308;2022-10-31T01:27:24;18.10;82.40
37658;DHT22;23500;53.268;8.308;2022-10-31T01:29:49;18.00;82.30
37658;DHT22;23500;53.268;8.308;2022-10-31T01:32:15;18.10;82.40
37658;DHT22;23500;53.268;8.308;2022-10-31T01:34:41;18.00;82.20
37658;DHT22;23500;53.268;8.308;2022-10-31T01:37:06;18.10;82.30
37658;DHT22;23500;53.268;8.308;2022-10-31T01:39:32;18.00;82.00
37658;DHT22;23500;53.268;8.308;2022-10-31T01:41:58;18.00;82.00
37658;DHT22;23500;53.268;8.308;2022-10-31T01:47:13;18.00;81.80
37658;DHT22;23500;53.268;8.308;2022-10-31T01:49:47;18.00;81.70
37658;DHT22;23500;53.268;8.308;2022-10-31T01:54:56;18.00;82.00
37658;DHT22;23500;53.268;8.308;2022-10-31T01:57:25;18.00;82.00
37658;DHT22;23500;53.268;8.308;2022-10-31T01:59:55;18.00;81.90
37658;DHT22;23500;53.268;8.308;2022-10-31T02:02:23;18.00;81.90
37658;DHT22;23500;53.268;8.308;2022-10-31T02:04:49;18.00;82.00
37658;DHT22;23500;53.268;8.308;2022-10-31T02:07:20;18.00;82.00
37658;DHT22;23500;53.268;8.308;2022-10-31T02:09:48;18.00;82.10
37658;DHT22;23500;53.268;8.308;2022-10-31T02:12:15;18.00;82.10
37658;DHT22;23500;53.268;8.308;2022-10-31T02:14:42;17.90;82.30
37658;DHT22;23500;53.268;8.308;2022-10-31T02:17:08;17.90;82.30
37658;DHT22;23500;53.268;8.308;2022-10-31T02:19:51;17.90;82.20
37658;DHT22;23500;53.268;8.308;2022-10-31T02:33:57;17.90;82.50
37658;DHT22;23500;53.268;8.308;2022-10-31T02:44:29;17.90;82.50
37658;DHT22;23500;53.268;8.308;2022-10-31T02:47:14;17.90;82.40
37658;DHT22;23500;53.268;8.308;2022-10-31T02:50:01;17.90;83.00
37658;DHT22;23500;53.268;8.308;2022-10-31T02:52:30;17.90;82.40
37658;DHT22;23500;53.268;8.308;2022-10-31T02:54:56;17.90;82.20
37658;DHT22;23500;53.268;8.308;2022-10-31T02:57:26;17.90;82.30
37658;DHT22;23500;53.268;8.308;2022-10-31T03:00:04;17.90;82.30
37658;DHT22;23500;53.268;8.308;2022-10-31T03:08:34;17.90;81.60
37658;DHT22;23500;53.268;8.308;2022-10-31T03:11:03;17.90;81.70
37658;DHT22;23500;53.268;8.308;2022-10-31T03:16:06;17.80;81.50
37658;DHT22;23500;53.268;8.308;2022-10-31T03:18:37;17.80;81.60
37658;DHT22;23500;53.268;8.308;2022-10-31T03:21:11;17.80;81.60
37658;DHT22;23500;53.268;8.308;2022-10-31T03:23:37;17.80;81.10
37658;DHT22;23500;53.268;8.308;2022-10-31T03:26:06;17.80;80.80
37658;DHT22;23500;53.268;8.308;2022-10-31T03:28:49;17.80;80.80
37658;DHT22;23500;53.268;8.308;2022-10-31T03:31:19;17.80;80.30
37658;DHT22;23500;53.268;8.308;2022-10-31T03:33:48;17.80;79.70
37658;DHT22;23500;53.268;8.308;2022-10-31T03:36:15;17.80;79.90
37658;DHT22;23500;53.268;8.308;2022-10-31T03:38:42;17.80;80.00
37658;DHT22;23500;53.268;8.308;2022-10-31T03:41:16;17.80;79.30
37658;DHT22;23500;53.268;8.308;2022-10-31T03:43:48;17.80;79.60
37658;DHT22;23500;53.268;8.308;2022-10-31T03:46:17;17.80;79.70
37658;DHT22;23500;53.268;8.308;2022-10-31T03:48:43;17.80;79.30
37658;DHT22;23500;53.268;8.308;2022-10-31T03:56:49;17.70;79.00
37658;DHT22;23500;53.268;8.308;2022-10-31T03:59:36;17.70;79.40
37658;DHT22;23500;53.268;8.308;2022-10-31T04:02:07;17.70;79.30
37658;DHT22;23500;53.268;8.308;2022-10-31T04:04:34;17.70;79.70
37658;DHT22;23500;53.268;8.308;2022-10-31T04:07:01;17.70;79.30
37658;DHT22;23500;53.268;8.308;2022-10-31T04:09:28;17.70;79.60
37658;DHT22;23500;53.268;8.308;2022-10-31T04:11:56;17.70;79.30
37658;DHT22;23500;53.268;8.308;2022-10-31T04:14:27;17.70;79.30
37658;DHT22;23500;53.268;8.308;2022-10-31T04:16:56;17.70;79.60
37658;DHT22;23500;53.268;8.308;2022-10-31T04:19:22;17.60;79.20
37658;DHT22;23500;53.268;8.308;2022-10-31T04:21:47;17.60;79.10
37658;DHT22;23500;53.268;8.308;2022-10-31T04:24:13;17.60;79.10
37658;DHT22;23500;53.268;8.308;2022-10-31T04:26:39;17.60;79.30
37658;DHT22;23500;53.268;8.308;2022-10-31T04:29:04;17.60;79.50
37658;DHT22;23500;53.268;8.308;2022-10-31T04:31:31;17.60;79.50
37658;DHT22;23500;53.268;8.308;2022-10-31T04:33:57;17.60;80.20
37658;DHT22;23500;53.268;8.308;2022-10-31T04:36:22;17.60;79.90
37658;DHT22;23500;53.268;8.308;2022-10-31T04:38:48;17.60;80.30
37658;DHT22;23500;53.268;8.308;2022-10-31T04:41:14;17.60;80.60
37658;DHT22;23500;53.268;8.308;2022-10-31T04:43:39;17.60;80.60
37658;DHT22;23500;53.268;8.308;2022-10-31T04:46:05;17.60;80.60
37658;DHT22;23500;53.268;8.308;2022-10-31T04:48:30;17.60;80.70
37658;DHT22;23500;53.268;8.308;2022-10-31T04:51:02;17.60;80.60
37658;DHT22;23500;53.268;8.308;2022-10-31T04:53:28;17.60;80.80
37658;DHT22;23500;53.268;8.308;2022-10-31T04:55:54;17.50;80.60
37658;DHT22;23500;53.268;8.308;2022-10-31T04:58:20;17.50;80.70
37658;DHT22;23500;53.268;8.308;2022-10-31T05:00:45;17.50;80.50
37658;DHT22;23500;53.268;8.308;2022-10-31T05:03:11;17.50;80.90
37658;DHT22;23500;53.268;8.308;2022-10-31T05:05:37;17.50;80.50
37658;DHT22;23500;53.268;8.308;2022-10-31T05:08:03;17.50;81.00
37658;DHT22;23500;53.268;8.308;2022-10-31T05:10:30;17.50;81.20
37658;DHT22;23500;53.268;8.308;2022-10-31T05:12:58;17.50;80.90
37658;DHT22;23500;53.268;8.308;2022-10-31T05:15:25;17.50;80.80
37658;DHT22;23500;53.268;8.308;2022-10-31T05:17:52;17.50;80.70
37658;DHT22;23500;53.268;8.308;2022-10-31T05:20:20;17.50;80.90
37658;DHT22;23500;53.268;8.308;2022-10-31T05:22:48;17.50;81.10
37658;DHT22;23500;53.268;8.308;2022-10-31T05:25:15;17.50;80.80
37658;DHT22;23500;53.268;8.308;2022-10-31T05:27:43;17.50;80.90
37658;DHT22;23500;53.268;8.308;2022-10-31T05:30:10;17.50;81.00
37658;DHT22;23500;53.268;8.308;2022-10-31T05:32:41;17.50;80.70
37658;DHT22;23500;53.268;8.308;2022-10-31T05:35:08;17.50;80.90
37658;DHT22;23500;53.268;8.308;2022-10-31T05:37:36;17.50;80.70
37658;DHT22;23500;53.268;8.308;2022-10-31T05:40:03;17.50;81.10
37658;DHT22;23500;53.268;8.308;2022-10-31T05:42:29;17.50;80.30
37658;DHT22;23500;53.268;8.308;2022-10-31T05:44:55;17.50;80.60
37658;DHT22;23500;53.268;8.308;2022-10-31T05:47:21;17.50;81.00
37658;DHT22;23500;53.268;8.308;2022-10-31T05:49:46;17.40;80.90
37658;DHT22;23500;53.268;8.308;2022-10-31T05:52:12;17.50;80.70
37658;DHT22;23500;53.268;8.308;2022-10-31T05:54:37;17.50;81.20
37658;DHT22;23500;53.268;8.308;2022-10-31T05:57:03;17.50;81.20
37658;DHT22;23500;53.268;8.308;2022-10-31T05:59:29;17.40;80.90
37658;DHT22;23500;53.268;8.308;2022-10-31T06:01:54;17.40;81.20
37658;DHT22;23500;53.268;8.308;2022-10-31T06:04:20;17.40;81.10
37658;DHT22;23500;53.268;8.308;2022-10-31T06:06:46;17.40;80.90
37658;DHT22;23500;53.268;8.308;2022-10-31T06:09:11;17.40;81.10
37658;DHT22;23500;53.268;8.308;2022-10-31T06:11:37;17.40;80.90
37658;DHT22;23500;53.268;8.308;2022-10-31T06:14:03;17.40;81.10
37658;DHT22;23500;53.268;8.308;2022-10-31T06:16:29;17.40;81.30
37658;DHT22;23500;53.268;8.308;2022-10-31T06:18:55;17.40;81.10
37658;DHT22;23500;53.268;8.308;2022-10-31T06:21:20;17.40;81.40
37658;DHT22;23500;53.268;8.308;2022-10-31T06:23:46;17.40;81.30
37658;DHT22;23500;53.268;8.308;2022-10-31T06:26:12;17.40;81.20
37658;DHT22;23500;53.268;8.308;2022-10-31T06:28:38;17.40;81.50
37658;DHT22;23500;53.268;8.308;2022-10-31T06:31:03;17.40;81.10
37658;DHT22;23500;53.268;8.308;2022-10-31T06:33:29;17.40;81.20
37658;DHT22;23500;53.268;8.308;2022-10-31T06:35:55;17.40;81.40
37658;DHT22;23500;53.268;8.308;2022-10-31T06:38:21;17.40;81.10
37658;DHT22;23500;53.268;8.308;2022-10-31T06:40:46;17.40;81.20
37658;DHT22;23500;53.268;8.308;2022-10-31T06:43:12;17.40;81.90
37658;DHT22;23500;53.268;8.308;2022-10-31T06:45:39;17.40;81.30
37658;DHT22;23500;53.268;8.308;2022-10-31T06:48:07;17.40;81.30
37658;DHT22;23500;53.268;8.308;2022-10-31T06:50:33;17.40;81.30
37658;DHT22;23500;53.268;8.308;2022-10-31T06:52:59;17.40;81.30
37658;DHT22;23500;53.268;8.308;2022-10-31T06:55:25;17.40;81.50
37658;DHT22;23500;53.268;8.308;2022-10-31T06:57:59;17.40;81.30
37658;DHT22;23500;53.268;8.308;2022-10-31T07:00:27;17.40;81.60
37658;DHT22;23500;53.268;8.308;2022-10-31T07:05:20;17.40;81.50
37658;DHT22;23500;53.268;8.308;2022-10-31T07:07:45;17.40;81.90
37658;DHT22;23500;53.268;8.308;2022-10-31T07:10:11;17.40;81.30
37658;DHT22;23500;53.268;8.308;2022-10-31T07:12:37;17.40;81.50
37658;DHT22;23500;53.268;8.308;2022-10-31T07:15:03;17.30;81.10
37658;DHT22;23500;53.268;8.308;2022-10-31T07:17:28;17.40;81.30
37658;DHT22;23500;53.268;8.308;2022-10-31T07:19:54;17.40;81.50
37658;DHT22;23500;53.268;8.308;2022-10-31T07:22:20;17.40;81.30
37658;DHT22;23500;53.268;8.308;2022-10-31T07:24:45;17.40;81.30
37658;DHT22;23500;53.268;8.308;2022-10-31T07:27:11;17.40;81.10
37658;DHT22;23500;53.268;8.308;2022-10-31T07:29:36;17.40;81.50
37658;DHT22;23500;53.268;8.308;2022-10-31T07:32:02;17.40;81.40
37658;DHT22;23500;53.268;8.308;2022-10-31T07:34:28;17.40;81.40
37658;DHT22;23500;53.268;8.308;2022-10-31T07:36:53;17.40;81.60
37658;DHT22;23500;53.268;8.308;2022-10-31T07:39:19;17.40;81.70
37658;DHT22;23500;53.268;8.308;2022-10-31T07:41:45;17.40;81.90
37658;DHT22;23500;53.268;8.308;2022-10-31T07:44:10;17.40;81.60
37658;DHT22;23500;53.268;8.308;2022-10-31T07:46:36;17.40;81.80
37658;DHT22;23500;53.268;8.308;2022-10-31T07:49:02;17.40;82.00
37658;DHT22;23500;53.268;8.308;2022-10-31T07:51:27;17.40;82.10
37658;DHT22;23500;53.268;8.308;2022-10-31T07:53:53;17.40;82.10
37658;DHT22;23500;53.268;8.308;2022-10-31T07:56:19;17.40;81.70
37658;DHT22;23500;53.268;8.308;2022-10-31T07:58:44;17.40;82.10
37658;DHT22;23500;53.268;8.308;2022-10-31T08:01:10;17.40;82.00
37658;DHT22;23500;53.268;8.308;2022-10-31T08:03:36;17.40;82.10
37658;DHT22;23500;53.268;8.308;2022-10-31T08:06:01;17.40;81.80
37658;DHT22;23500;53.268;8.308;2022-10-31T08:08:27;17.40;82.20
37658;DHT22;23500;53.268;8.308;2022-10-31T08:10:53;17.40;82.30
37658;DHT22;23500;53.268;8.308;2022-10-31T08:13:19;17.40;82.00
37658;DHT22;23500;53.268;8.308;2022-10-31T08:15:45;17.40;81.80
37658;DHT22;23500;53.268;8.308;2022-10-31T08:18:15;17.40;81.60
37658;DHT22;23500;53.268;8.308;2022-10-31T08:20:44;17.40;82.10
37658;DHT22;23500;53.268;8.308;2022-10-31T08:23:11;17.40;82.30
37658;DHT22;23500;53.268;8.308;2022-10-31T08:25:37;17.40;82.00
37658;DHT22;23500;53.268;8.308;2022-10-31T08:28:03;17.40;82.00
37658;DHT22;23500;53.268;8.308;2022-10-31T08:30:31;17.40;82.00
37658;DHT22;23500;53.268;8.308;2022-10-31T08:35:31;17.40;82.40
37658;DHT22;23500;53.268;8.308;2022-10-31T08:37:58;17.40;81.60
37658;DHT22;23500;53.268;8.308;2022-10-31T08:40:24;17.40;81.30
37658;DHT22;23500;53.268;8.308;2022-10-31T08:43:01;17.40;81.80
37658;DHT22;23500;53.268;8.308;2022-10-31T08:45:29;17.40;81.80
37658;DHT22;23500;53.268;8.308;2022-10-31T08:48:06;17.40;82.10
37658;DHT22;23500;53.268;8.308;2022-10-31T08:50:33;17.40;81.90
37658;DHT22;23500;53.268;8.308;2022-10-31T08:53:04;17.40;81.60
37658;DHT22;23500;53.268;8.308;2022-10-31T08:55:30;17.40;81.50
37658;DHT22;23500;53.268;8.308;2022-10-31T08:57:59;17.40;81.80
37658;DHT22;23500;53.268;8.308;2022-10-31T09:00:25;17.40;82.20
37658;DHT22;23500;53.268;8.308;2022-10-31T09:03:02;17.40;81.80
37658;DHT22;23500;53.268;8.308;2022-10-31T09:05:29;17.40;81.80
37658;DHT22;23500;53.268;8.308;2022-10-31T09:07:58;17.40;81.50
37658;DHT22;23500;53.268;8.308;2022-10-31T09:10:25;17.40;81.80
37658;DHT22;23500;53.268;8.308;2022-10-31T09:12:55;17.40;82.00
37658;DHT22;23500;53.268;8.308;2022-10-31T09:15:22;17.50;82.10
37658;DHT22;23500;53.268;8.308;2022-10-31T09:17:48;17.50;82.10
37658;DHT22;23500;53.268;8.308;2022-10-31T09:20:13;17.50;82.50
37658;DHT22;23500;53.268;8.308;2022-10-31T09:22:39;17.50;82.20
37658;DHT22;23500;53.268;8.308;2022-10-31T09:25:05;17.50;82.00
37658;DHT22;23500;53.268;8.308;2022-10-31T09:27:31;17.50;81.90
37658;DHT22;23500;53.268;8.308;2022-10-31T09:29:56;17.50;82.10
37658;DHT22;23500;53.268;8.308;2022-10-31T09:32:22;17.50;82.30
37658;DHT22;23500;53.268;8.308;2022-10-31T09:34:48;17.50;82.20
37658;DHT22;23500;53.268;8.308;2022-10-31T09:37:13;17.50;82.30
37658;DHT22;23500;53.268;8.308;2022-10-31T09:39:39;17.60;82.50
37658;DHT22;23500;53.268;8.308;2022-10-31T09:45:18;17.60;82.80
37658;DHT22;23500;53.268;8.308;2022-10-31T09:50:42;17.60;82.80
37658;DHT22;23500;53.268;8.308;2022-10-31T09:55:47;17.60;82.70
37658;DHT22;23500;53.268;8.308;2022-10-31T09:58:20;17.60;82.80
37658;DHT22;23500;53.268;8.308;2022-10-31T10:00:47;17.60;82.80
37658;DHT22;23500;53.268;8.308;2022-10-31T10:06:36;17.60;84.00
37658;DHT22;23500;53.268;8.308;2022-10-31T10:08:42;17.60;84.40
37658;DHT22;23500;53.268;8.308;2022-10-31T10:14:31;17.70;83.60
37658;DHT22;23500;53.268;8.308;2022-10-31T10:24:59;17.70;83.30
37658;DHT22;23500;53.268;8.308;2022-10-31T10:30:18;17.80;85.50
37658;DHT22;23500;53.268;8.308;2022-10-31T10:32:52;17.80;85.80
37658;DHT22;23500;53.268;8.308;2022-10-31T10:35:25;17.80;85.70
37658;DHT22;23500;53.268;8.308;2022-10-31T10:37:58;17.80;85.80
37658;DHT22;23500;53.268;8.308;2022-10-31T10:40:27;17.90;85.90
37658;DHT22;23500;53.268;8.308;2022-10-31T10:49:16;17.90;85.60
37658;DHT22;23500;53.268;8.308;2022-10-31T11:00:34;18.00;85.10
37658;DHT22;23500;53.268;8.308;2022-10-31T11:03:01;18.00;85.10
37658;DHT22;23500;53.268;8.308;2022-10-31T11:05:49;18.00;85.10
37658;DHT22;23500;53.268;8.308;2022-10-31T11:08:31;18.00;84.90
37658;DHT22;23500;53.268;8.308;2022-10-31T11:13:31;18.00;84.30
37658;DHT22;23500;53.268;8.308;2022-10-31T11:16:11;18.00;84.70
37658;DHT22;23500;53.268;8.308;2022-10-31T11:18:44;18.00;84.70
37658;DHT22;23500;53.268;8.308;2022-10-31T11:21:29;18.00;84.80
37658;DHT22;23500;53.268;8.308;2022-10-31T11:26:37;18.00;85.10
37658;DHT22;23500;53.268;8.308;2022-10-31T11:29:05;18.10;85.60
37658;DHT22;23500;53.268;8.308;2022-10-31T11:31:34;18.10;85.90
37658;DHT22;23500;53.268;8.308;2022-10-31T11:34:05;18.10;86.20
37658;DHT22;23500;53.268;8.308;2022-10-31T11:36:39;18.10;86.20
37658;DHT22;23500;53.268;8.308;2022-10-31T11:39:16;18.10;85.90
37658;DHT22;23500;53.268;8.308;2022-10-31T11:41:43;18.10;85.70
37658;DHT22;23500;53.268;8.308;2022-10-31T11:44:17;18.10;86.20
37658;DHT22;23500;53.268;8.308;2022-10-31T11:46:50;18.20;85.70
37658;DHT22;23500;53.268;8.308;2022-10-31T11:49:33;18.20;85.40
37658;DHT22;23500;53.268;8.308;2022-10-31T11:52:20;18.20;85.20
37658;DHT22;23500;53.268;8.308;2022-10-31T11:54:54;18.20;85.30
37658;DHT22;23500;53.268;8.308;2022-10-31T11:59:55;18.20;84.60
37658;DHT22;23500;53.268;8.308;2022-10-31T12:02:21;18.20;84.30
37658;DHT22;23500;53.268;8.308;2022-10-31T12:07:23;18.20;84.80
37658;DHT22;23500;53.268;8.308;2022-10-31T12:09:49;18.20;85.30
37658;DHT22;23500;53.268;8.308;2022-10-31T12:14:47;18.20;85.60
37658;DHT22;23500;53.268;8.308;2022-10-31T12:17:18;18.20;85.70
37658;DHT22;23500;53.268;8.308;2022-10-31T12:27:56;18.20;84.90
37658;DHT22;23500;53.268;8.308;2022-10-31T12:30:33;18.20;84.60
37658;DHT22;23500;53.268;8.308;2022-10-31T12:44:29;18.20;84.40
37658;DHT22;23500;53.268;8.308;2022-10-31T12:56:00;18.20;83.80
37658;DHT22;23500;53.268;8.308;2022-10-31T12:58:35;18.20;83.90
37658;DHT22;23500;53.268;8.308;2022-10-31T13:01:16;18.20;84.40
37658;DHT22;23500;53.268;8.308;2022-10-31T13:04:14;18.30;84.40
37658;DHT22;23500;53.268;8.308;2022-10-31T13:06:57;18.30;84.60
37658;DHT22;23500;53.268;8.308;2022-10-31T13:09:29;18.30;83.90
37658;DHT22;23500;53.268;8.308;2022-10-31T13:12:08;18.30;83.90
37658;DHT22;23500;53.268;8.308;2022-10-31T13:17:38;18.30;83.70
37658;DHT22;23500;53.268;8.308;2022-10-31T13:20:25;18.30;83.80
37658;DHT22;23500;53.268;8.308;2022-10-31T13:23:10;18.30;83.90
37658;DHT22;23500;53.268;8.308;2022-10-31T13:25:42;18.30;84.00
37658;DHT22;23500;53.268;8.308;2022-10-31T13:28:23;18.30;84.10
37658;DHT22;23500;53.268;8.308;2022-10-31T13:30:50;18.30;84.00
37658;DHT22;23500;53.268;8.308;2022-10-31T13:36:10;18.20;83.90
37658;DHT22;23500;53.268;8.308;2022-10-31T13:43:57;18.20;83.90
37658;DHT22;23500;53.268;8.308;2022-10-31T13:46:35;18.20;83.90
37658;DHT22;23500;53.268;8.308;2022-10-31T13:49:01;18.30;84.00
37658;DHT22;23500;53.268;8.308;2022-10-31T13:51:35;18.20;83.90
37658;DHT22;23500;53.268;8.308;2022-10-31T13:56:51;18.20;83.90
37658;DHT22;23500;53.268;8.308;2022-10-31T13:59:23;18.20;83.80
37658;DHT22;23500;53.268;8.308;2022-10-31T14:02:14;18.30;84.00
37658;DHT22;23500;53.268;8.308;2022-10-31T14:05:04;18.20;83.90
37658;DHT22;23500;53.268;8.308;2022-10-31T14:07:31;18.20;83.70
37658;DHT22;23500;53.268;8.308;2022-10-31T14:10:04;18.20;83.80
37658;DHT22;23500;53.268;8.308;2022-10-31T14:12:33;18.20;83.60
37658;DHT22;23500;53.268;8.308;2022-10-31T14:17:34;18.20;83.70
37658;DHT22;23500;53.268;8.308;2022-10-31T14:22:37;18.20;83.70
37658;DHT22;23500;53.268;8.308;2022-10-31T14:27:53;18.20;83.50
37658;DHT22;23500;53.268;8.308;2022-10-31T14:30:22;18.20;83.50
37658;DHT22;23500;53.268;8.308;2022-10-31T14:33:02;18.20;83.60
37658;DHT22;23500;53.268;8.308;2022-10-31T14:36:03;18.20;83.50
37658;DHT22;23500;53.268;8.308;2022-10-31T14:39:05;18.20;83.50
37658;DHT22;23500;53.268;8.308;2022-10-31T14:52:31;18.10;83.30
37658;DHT22;23500;53.268;8.308;2022-10-31T14:54:59;18.10;83.20
37658;DHT22;23500;53.268;8.308;2022-10-31T14:57:34;18.10;83.20
37658;DHT22;23500;53.268;8.308;2022-10-31T15:00:05;18.10;83.10
37658;DHT22;23500;53.268;8.308;2022-10-31T15:02:36;18.10;83.20
37658;DHT22;23500;53.268;8.308;2022-10-31T15:05:08;18.10;83.10
37658;DHT22;23500;53.268;8.308;2022-10-31T15:07:34;18.10;83.00
37658;DHT22;23500;53.268;8.308;2022-10-31T15:12:46;18.10;82.90
37658;DHT22;23500;53.268;8.308;2022-10-31T15:15:23;18.10;82.90
37658;DHT22;23500;53.268;8.308;2022-10-31T15:17:55;18.10;83.10
37658;DHT22;23500;53.268;8.308;2022-10-31T15:20:25;18.10;83.00
37658;DHT22;23500;53.268;8.308;2022-10-31T15:22:52;18.10;83.00
37658;DHT22;23500;53.268;8.308;2022-10-31T15:25:23;18.10;82.90
37658;DHT22;23500;53.268;8.308;2022-10-31T15:27:51;18.10;82.90
37658;DHT22;23500;53.268;8.308;2022-10-31T15:30:22;18.10;82.80
37658;DHT22;23500;53.268;8.308;2022-10-31T15:32:48;18.10;82.90
37658;DHT22;23500;53.268;8.308;2022-10-31T15:35:26;18.10;82.80
37658;DHT22;23500;53.268;8.308;2022-10-31T15:37:53;18.00;82.70
37658;DHT22;23500;53.268;8.308;2022-10-31T15:40:21;18.00;82.60
37658;DHT22;23500;53.268;8.308;2022-10-31T15:42:54;18.00;82.70
37658;DHT22;23500;53.268;8.308;2022-10-31T15:45:25;18.00;82.70
37658;DHT22;23500;53.268;8.308;2022-10-31T15:48:11;18.00;82.50
37658;DHT22;23500;53.268;8.308;2022-10-31T15:50:41;18.00;82.80
37658;DHT22;23500;53.268;8.308;2022-10-31T15:53:24;18.00;82.70
37658;DHT22;23500;53.268;8.308;2022-10-31T15:55:57;18.00;82.70
37658;DHT22;23500;53.268;8.308;2022-10-31T15:58:24;18.00;82.40
37658;DHT22;23500;53.268;8.308;2022-10-31T16:00:59;18.00;82.50
37658;DHT22;23500;53.268;8.308;2022-10-31T16:03:28;18.00;82.50
37658;DHT22;23500;53.268;8.308;2022-10-31T16:05:59;18.00;82.70
37658;DHT22;23500;53.268;8.308;2022-10-31T16:13:31;18.00;82.70
37658;DHT22;23500;53.268;8.308;2022-10-31T16:16:01;18.00;82.90
37658;DHT22;23500;53.268;8.308;2022-10-31T16:18:29;18.00;82.80
37658;DHT22;23500;53.268;8.308;2022-10-31T16:20:56;17.90;82.60
37658;DHT22;23500;53.268;8.308;2022-10-31T16:23:24;17.90;82.70
37658;DHT22;23500;53.268;8.308;2022-10-31T16:25:51;17.90;82.40
37658;DHT22;23500;53.268;8.308;2022-10-31T16:28:21;17.90;82.40
37658;DHT22;23500;53.268;8.308;2022-10-31T16:30:54;17.90;82.40
37658;DHT22;23500;53.268;8.308;2022-10-31T16:33:21;17.90;82.70
37658;DHT22;23500;53.268;8.308;2022-10-31T16:35:48;17.90;82.70
37658;DHT22;23500;53.268;8.308;2022-10-31T16:38:14;17.90;82.80
37658;DHT22;23500;53.268;8.308;2022-10-31T16:40:40;17.90;82.60
37658;DHT22;23500;53.268;8.308;2022-10-31T16:43:12;17.90;83.00
37658;DHT22;23500;53.268;8.308;2022-10-31T16:45:43;17.90;82.70
37658;DHT22;23500;53.268;8.308;2022-10-31T16:48:15;17.90;82.80
37658;DHT22;23500;53.268;8.308;2022-10-31T16:50:44;17.90;82.60
37658;DHT22;23500;53.268;8.308;2022-10-31T16:53:12;17.90;83.00
37658;DHT22;23500;53.268;8.308;2022-10-31T16:55:54;17.90;82.50
37658;DHT22;23500;53.268;8.308;2022-10-31T16:58:27;17.90;82.70
37658;DHT22;23500;53.268;8.308;2022-10-31T17:00:53;17.90;82.80
37658;DHT22;23500;53.268;8.308;2022-10-31T17:03:19;17.80;82.50
37658;DHT22;23500;53.268;8.308;2022-10-31T17:05:45;17.80;82.20
37658;DHT22;23500;53.268;8.308;2022-10-31T17:08:11;17.80;82.80
37658;DHT22;23500;53.268;8.308;2022-10-31T17:10:38;17.80;82.60
37658;DHT22;23500;53.268;8.308;2022-10-31T17:13:06;17.80;82.40
37658;DHT22;23500;53.268;8.308;2022-10-31T17:15:38;17.80;82.70
37658;DHT22;23500;53.268;8.308;2022-10-31T17:18:06;17.80;82.60
37658;DHT22;23500;53.268;8.308;2022-10-31T17:20:32;17.80;82.50
37658;DHT22;23500;53.268;8.308;2022-10-31T17:22:58;17.80;82.30
37658;DHT22;23500;53.268;8.308;2022-10-31T17:25:26;17.80;82.70
37658;DHT22;23500;53.268;8.308;2022-10-31T17:27:52;17.80;83.00
37658;DHT22;23500;53.268;8.308;2022-10-31T17:30:19;17.70;82.60
37658;DHT22;23500;53.268;8.308;2022-10-31T17:32:47;17.70;82.60
37658;DHT22;23500;53.268;8.308;2022-10-31T17:35:14;17.70;83.40
37658;DHT22;23500;53.268;8.308;2022-10-31T17:37:41;17.80;82.80
37658;DHT22;23500;53.268;8.308;2022-10-31T17:40:09;17.70;82.60
37658;DHT22;23500;53.268;8.308;2022-10-31T17:42:35;17.80;82.50
37658;DHT22;23500;53.268;8.308;2022-10-31T17:45:00;17.80;82.50
37658;DHT22;23500;53.268;8.308;2022-10-31T17:47:26;17.80;82.50
37658;DHT22;23500;53.268;8.308;2022-10-31T17:49:52;17.70;82.20
37658;DHT22;23500;53.268;8.308;2022-10-31T17:52:18;17.70;82.50
37658;DHT22;23500;53.268;8.308;2022-10-31T17:54:44;17.70;82.50
37658;DHT22;23500;53.268;8.308;2022-10-31T17:57:10;17.70;82.50
37658;DHT22;23500;53.268;8.308;2022-10-31T17:59:36;17.70;82.30
37658;DHT22;23500;53.268;8.308;2022-10-31T18:02:01;17.70;82.40
37658;DHT22;23500;53.268;8.308;2022-10-31T18:04:33;17.70;82.40
37658;DHT22;23500;53.268;8.308;2022-10-31T18:06:59;17.70;82.40
37658;DHT22;23500;53.268;8.308;2022-10-31T18:09:24;17.70;82.00
37658;DHT22;23500;53.268;8.308;2022-10-31T18:11:50;17.70;82.20
37658;DHT22;23500;53.268;8.308;2022-10-31T18:14:16;17.70;82.30
37658;DHT22;23500;53.268;8.308;2022-10-31T18:16:41;17.60;82.30
37658;DHT22;23500;53.268;8.308;2022-10-31T18:19:10;17.70;82.20
37658;DHT22;23500;53.268;8.308;2022-10-31T18:21:36;17.60;81.80
37658;DHT22;23500;53.268;8.308;2022-10-31T18:24:02;17.70;81.90
37658;DHT22;23500;53.268;8.308;2022-10-31T18:26:27;17.60;82.00
37658;DHT22;23500;53.268;8.308;2022-10-31T18:28:53;17.60;82.20